Time;durP1;ratioP1;P1;durP2;ratioP2;P2;SDS_P1;SDS_P2;PMS_P1;PMS_P2;Temp;Humidity;BMP_temperature;BMP_pressure;BME280_temperature;BME280_humidity;BME280_pressure;Samples;Min_cycle;Max_cycle;Signal;HPM_P1;HPM_P2
2023/03/14 00:01:33;;;;;;;5.82;1.63;;;;;;;-148.88;95.20;73994.22;5029769;28;20022;-80
2023/03/14 00:03:59;;;;;;;4.75;1.95;;;;;;;-148.88;95.43;73992.19;5027496;28;20103;-80
2023/03/14 00:06:25;;;;;;;4.72;1.60;;;;;;;-148.88;95.42;73990.16;5045730;28;20029;-80
2023/03/14 00:08:51;;;;;;;5.75;1.88;;;;;;;-148.88;96.11;73990.16;5027980;28;20048;-80
2023/03/14 00:11:19;;;;;;;6.65;1.98;;;;;;;-148.88;95.79;73984.06;5045964;28;20103;-80
2023/03/14 00:13:48;;;;;;;7.88;1.67;;;;;;;-148.88;96.59;74002.34;5046526;28;20040;-81
2023/03/14 00:16:13;;;;;;;7.20;1.90;;;;;;;-148.88;97.11;74030.75;5045911;28;20044;-80
2023/03/14 00:18:39;;;;;;;5.18;1.70;;;;;;;-148.88;97.13;74032.78;5045146;28;20029;-79
2023/03/14 00:21:07;;;;;;;4.47;1.92;;;;;;;-148.88;97.23;74038.88;5027411;28;20037;-80
2023/03/14 00:23:34;;;;;;;5.38;1.67;;;;;;;-148.88;97.51;74040.91;5045953;28;20089;-80
2023/03/14 00:26:02;;;;;;;4.90;1.77;;;;;;;-148.88;97.46;74047.00;5045224;28;20108;-79
2023/03/14 00:28:27;;;;;;;5.13;1.90;;;;;;;-148.88;97.00;74026.72;5019717;28;20120;-79
2023/03/14 00:30:53;;;;;;;5.35;1.88;;;;;;;-148.88;97.24;74016.56;5045108;28;20041;-80
2023/03/14 00:33:18;;;;;;;4.65;1.42;;;;;;;-148.88;96.98;74010.47;5045919;28;20025;-80
2023/03/14 00:35:43;;;;;;;6.57;2.13;;;;;;;-148.88;97.62;74020.63;5042207;28;20045;-80
2023/03/14 00:38:09;;;;;;;3.65;1.60;;;;;;;-148.88;97.84;74030.75;5044383;28;20380;-80
2023/03/14 00:40:38;;;;;;;4.05;1.77;;;;;;;-148.88;98.16;74036.84;5043897;28;20030;-79
2023/03/14 00:43:03;;;;;;;8.52;2.13;;;;;;;-148.88;98.26;74042.94;5043424;28;20033;-80
2023/03/14 00:45:28;;;;;;;7.95;2.00;;;;;;;-148.88;98.24;74034.81;5026545;28;20025;-79
2023/03/14 00:47:54;;;;;;;6.15;1.80;;;;;;;-148.88;98.07;74026.72;5043603;28;20033;-80
2023/03/14 00:50:19;;;;;;;7.95;2.10;;;;;;;-148.88;98.04;74012.50;5026084;28;20052;-81
2023/03/14 00:52:46;;;;;;;6.90;2.10;;;;;;;-148.88;98.04;74018.59;5043743;28;20035;-80
2023/03/14 00:55:11;;;;;;;5.85;2.22;;;;;;;-148.88;98.27;74010.47;5048463;28;20029;-80
2023/03/14 00:57:36;;;;;;;8.52;2.28;;;;;;;-148.88;98.12;74014.53;5031196;28;20041;-80
2023/03/14 01:00:05;;;;;;;4.18;1.85;;;;;;;-148.88;97.98;74024.69;5048318;28;20036;-80
2023/03/14 01:02:30;;;;;;;6.00;1.83;;;;;;;-148.88;98.05;74024.69;5046728;28;20025;-80
2023/03/14 01:04:56;;;;;;;5.95;1.95;;;;;;;-148.88;98.06;74026.72;5026980;28;20044;-81
2023/03/14 01:07:21;;;;;;;6.65;1.38;;;;;;;-148.88;98.07;74014.53;5048809;28;20032;-80
2023/03/14 01:09:46;;;;;;;4.63;1.60;;;;;;;-148.88;97.90;74016.56;5048715;28;20029;-80
2023/03/14 01:12:11;;;;;;;4.35;1.15;;;;;;;-148.88;97.73;74022.66;5033084;28;20029;-80
2023/03/14 01:14:37;;;;;;;4.28;1.60;;;;;;;-148.88;97.56;74026.72;5046242;28;20033;-79
2023/03/14 01:17:02;;;;;;;6.18;1.92;;;;;;;-148.88;97.69;74020.63;5027731;28;20079;-79
2023/03/14 01:19:28;;;;;;;6.95;2.25;;;;;;;-148.88;97.49;74014.53;5026372;28;20084;-80
2023/03/14 01:21:53;;;;;;;5.18;1.50;;;;;;;-148.88;97.73;74012.50;5044220;28;20447;-79
2023/03/14 01:24:19;;;;;;;8.73;1.85;;;;;;;-148.88;97.09;74002.34;5026103;28;20026;-79
2023/03/14 01:26:44;;;;;;;5.28;1.60;;;;;;;-148.88;97.03;73980.00;5024561;28;20021;-79
2023/03/14 01:29:09;;;;;;;7.47;1.92;;;;;;;-148.88;96.45;73973.91;5041672;28;20022;-79
2023/03/14 01:31:35;;;;;;;4.15;1.30;;;;;;;-148.88;96.52;73977.97;5046544;28;20021;-79
2023/03/14 01:34:00;;;;;;;3.67;1.60;;;;;;;-148.88;96.34;73971.88;5038801;28;20021;-78
2023/03/14 01:36:25;;;;;;;5.03;0.93;;;;;;;-148.88;96.20;73975.94;5056400;28;20079;-79
2023/03/14 01:38:51;;;;;;;8.52;1.45;;;;;;;-148.88;96.01;73965.78;5052689;28;20028;-80
2023/03/14 01:41:20;;;;;;;6.10;1.92;;;;;;;-148.88;96.28;73961.72;5045991;28;20036;-79
2023/03/14 01:43:46;;;;;;;4.90;1.65;;;;;;;-148.88;96.29;73977.97;5040953;23;20057;-80
2023/03/14 01:46:18;;;;;;;5.95;2.03;;;;;;;-148.88;96.46;73969.84;5002429;28;20414;-79
2023/03/14 01:48:52;;;;;;;8.65;1.92;;;;;;;-148.88;95.90;73975.94;5002320;28;20034;-79
2023/03/14 01:51:22;;;;;;;4.63;1.15;;;;;;;-148.88;95.16;73955.66;5002462;28;20025;-79
2023/03/14 01:53:50;;;;;;;6.63;1.83;;;;;;;-148.88;95.25;73963.75;5020501;28;20483;-80
2023/03/14 01:56:18;;;;;;;9.30;1.98;;;;;;;-148.88;94.68;73955.66;5016068;23;20042;-85
2023/03/14 01:58:47;;;;;;;7.85;1.90;;;;;;;-148.88;94.77;73961.72;5016035;28;20029;-84
2023/03/14 02:01:16;;;;;;;5.38;1.00;;;;;;;-148.88;94.91;73961.72;5018564;28;20029;-84
2023/03/14 02:03:53;;;;;;;5.57;1.20;;;;;;;-148.88;94.89;73957.69;5015957;28;20030;-85
2023/03/14 02:06:24;;;;;;;7.65;1.55;;;;;;;-148.88;94.28;73959.72;5016733;28;20507;-84
2023/03/14 02:08:50;;;;;;;7.47;2.22;;;;;;;-148.88;94.83;73959.72;5018339;28;20531;-83
2023/03/14 02:11:17;;;;;;;6.00;1.63;;;;;;;-148.88;94.31;73947.53;5017348;28;20472;-85
2023/03/14 02:13:43;;;;;;;6.53;1.27;;;;;;;-148.88;93.66;73941.44;5017567;28;20034;-84
2023/03/14 02:16:09;;;;;;;4.80;1.70;;;;;;;-148.88;93.20;73929.25;5016809;28;20022;-84
2023/03/14 02:18:34;;;;;;;7.82;1.70;;;;;;;-148.88;93.40;73935.34;5018062;28;20484;-85
2023/03/14 02:21:17;;;;;;;5.68;1.50;;;;;;;-148.88;93.57;73933.31;5017525;28;20404;-84
2023/03/14 02:23:50;;;;;;;6.07;1.95;;;;;;;-148.88;93.32;73931.28;5016683;28;20025;-85
2023/03/14 02:26:35;;;;;;;5.35;1.08;;;;;;;-148.88;95.65;73943.47;5016557;28;20061;-85
2023/03/14 02:29:00;;;;;;;6.22;1.90;;;;;;;-148.88;100.00;73961.72;5017467;28;20072;-84
2023/03/14 02:31:25;;;;;;;7.93;2.05;;;;;;;-148.88;100.00;73996.25;5015329;28;20026;-84
2023/03/14 02:33:52;;;;;;;8.30;1.67;;;;;;;-148.88;100.00;74034.81;5016747;28;20045;-84
2023/03/14 02:36:19;;;;;;;5.60;2.30;;;;;;;-148.88;100.00;74047.00;5015575;28;20026;-83
2023/03/14 02:39:08;;;;;;;4.40;1.13;;;;;;;-148.88;100.00;74120.09;5015383;28;20057;-84
2023/03/14 02:41:33;;;;;;;6.32;1.60;;;;;;;-148.88;100.00;74134.31;5015428;28;20033;-84
2023/03/14 02:43:58;;;;;;;5.68;1.13;;;;;;;-148.88;100.00;74162.75;5014674;28;20033;-84
2023/03/14 02:46:24;;;;;;;1.08;0.50;;;;;;;-148.88;100.00;74160.72;5016107;28;20054;-83
2023/03/14 02:48:57;;;;;;;2.70;0.50;;;;;;;-148.88;100.00;74168.84;5014628;28;20491;-83
2023/03/14 02:51:25;;;;;;;3.92;1.05;;;;;;;-148.88;100.00;74185.06;5015818;28;20103;-84
2023/03/14 02:53:50;;;;;;;4.05;1.10;;;;;;;-148.88;100.00;74205.38;5016583;28;20030;-83
2023/03/14 02:56:16;;;;;;;5.38;1.10;;;;;;;-148.88;100.00;74209.44;5014846;28;20100;-83
2023/03/14 02:58:41;;;;;;;5.30;0.68;;;;;;;-148.88;100.00;74227.72;5014415;28;20040;-84
2023/03/14 03:01:06;;;;;;;1.83;0.40;;;;;;;-148.88;100.00;74221.63;5016094;28;20026;-84
2023/03/14 03:03:32;;;;;;;6.72;0.43;;;;;;;-148.88;100.00;74225.69;5014440;28;20128;-83
2023/03/14 03:05:57;;;;;;;1.75;0.30;;;;;;;-148.88;100.00;74233.81;5014323;28;20088;-84
2023/03/14 03:08:26;;;;;;;2.42;0.40;;;;;;;-148.88;100.00;74233.81;5014211;28;20088;-83
2023/03/14 03:10:51;;;;;;;3.30;0.90;;;;;;;-148.88;100.00;74223.66;5015852;28;20030;-83
2023/03/14 03:13:18;;;;;;;2.85;0.40;;;;;;;-148.88;100.00;74239.91;5015554;28;20388;-82
2023/03/14 03:15:43;;;;;;;3.42;0.90;;;;;;;-148.88;100.00;74237.88;5015835;28;20127;-84
2023/03/14 03:18:09;;;;;;;2.35;0.93;;;;;;;-148.88;100.00;74250.03;5013876;28;20088;-84
2023/03/14 03:20:34;;;;;;;1.67;0.68;;;;;;;-148.88;100.00;74248.00;5015904;28;20088;-83
2023/03/14 03:23:00;;;;;;;1.70;0.40;;;;;;;-148.88;100.00;74258.16;5015103;28;20108;-83
2023/03/14 03:25:26;;;;;;;1.35;0.38;;;;;;;-148.88;100.00;74254.09;5014862;28;20018;-83
2023/03/14 03:27:52;;;;;;;4.30;0.95;;;;;;;-148.88;100.00;74252.06;5017329;28;20436;-83
2023/03/14 03:30:17;;;;;;;3.75;0.80;;;;;;;-148.88;100.00;74260.19;5016694;28;20029;-84
2023/03/14 03:32:43;;;;;;;2.40;0.80;;;;;;;-148.88;100.00;74256.13;5017326;28;20095;-84
2023/03/14 03:35:09;;;;;;;5.85;1.15;;;;;;;-148.88;100.00;74248.00;5017797;28;20399;-84
2023/03/14 03:37:34;;;;;;;2.90;0.98;;;;;;;-148.88;100.00;74250.03;5016430;28;20036;-84
2023/03/14 03:40:05;;;;;;;3.35;0.70;;;;;;;-148.88;100.00;74254.09;5016848;28;20049;-84
2023/03/14 03:42:31;;;;;;;3.92;1.10;;;;;;;-148.88;100.00;74260.19;5017235;28;20021;-85
2023/03/14 03:44:56;;;;;;;4.65;0.98;;;;;;;-148.88;100.00;74254.09;5016286;28;20030;-83
2023/03/14 03:47:21;;;;;;;3.33;0.82;;;;;;;-148.88;100.00;74250.03;5014120;28;20018;-84
2023/03/14 03:49:46;;;;;;;2.13;0.63;;;;;;;-148.88;100.00;74254.09;5015560;28;20026;-84
2023/03/14 03:52:12;;;;;;;6.30;1.13;;;;;;;-148.88;100.00;74264.25;5014072;28;20025;-84
2023/03/14 03:54:37;;;;;;;1.27;0.50;;;;;;;-148.88;100.00;74254.09;5015094;28;20022;-84
2023/03/14 03:57:03;;;;;;;3.10;0.60;;;;;;;-148.88;100.00;74241.94;5013986;28;20044;-84
2023/03/14 03:59:28;;;;;;;2.92;0.75;;;;;;;-148.88;100.00;74246.00;5014634;28;20432;-84
2023/03/14 04:01:53;;;;;;;5.90;0.80;;;;;;;-148.88;100.00;74235.84;5013801;28;20026;-83
2023/03/14 04:04:18;;;;;;;3.28;0.77;;;;;;;-148.88;100.00;74241.94;5015368;28;20472;-84
2023/03/14 04:06:44;;;;;;;2.28;0.80;;;;;;;-148.88;100.00;74252.06;5015401;28;20026;-84
2023/03/14 04:09:10;;;;;;;3.08;0.70;;;;;;;-148.88;100.00;74254.09;5014536;28;20411;-83
2023/03/14 04:11:35;;;;;;;3.45;0.90;;;;;;;-148.88;100.00;74258.16;5016118;28;20022;-84
2023/03/14 04:14:01;;;;;;;5.40;0.73;;;;;;;-148.88;100.00;74254.09;5013476;28;20482;-84
2023/03/14 04:16:26;;;;;;;1.65;0.70;;;;;;;-148.88;100.00;74246.00;5013576;28;20076;-83
2023/03/14 04:18:51;;;;;;;9.73;1.00;;;;;;;-148.88;100.00;74248.00;5014100;28;20045;-84
2023/03/14 04:21:17;;;;;;;4.82;1.42;;;;;;;-148.88;100.00;74246.00;5015220;28;20057;-84
2023/03/14 04:23:43;;;;;;;2.05;0.73;;;;;;;-148.88;100.00;74250.03;5013580;28;20029;-84
2023/03/14 04:26:08;;;;;;;3.63;0.70;;;;;;;-148.88;100.00;74254.09;5014649;28;20046;-84
2023/03/14 04:28:36;;;;;;;4.78;1.25;;;;;;;-148.88;100.00;74254.09;5014326;28;20384;-84
2023/03/14 04:31:07;;;;;;;2.88;1.33;;;;;;;-148.88;100.00;74239.91;5013578;28;20083;-83
2023/03/14 04:33:32;;;;;;;3.45;0.90;;;;;;;-148.88;100.00;74243.97;5013247;28;20029;-84
2023/03/14 04:35:58;;;;;;;3.08;1.20;;;;;;;-148.88;100.00;74243.97;5013883;28;20393;-82
2023/03/14 04:38:23;;;;;;;3.03;1.10;;;;;;;-148.88;100.00;74237.88;5013147;28;20032;-84
2023/03/14 04:40:48;;;;;;;5.15;1.17;;;;;;;-148.88;100.00;74233.81;5013033;28;20049;-83
2023/03/14 04:43:13;;;;;;;4.97;1.40;;;;;;;-148.88;100.00;74227.72;5014453;28;20412;-83
2023/03/14 04:45:44;;;;;;;6.70;1.45;;;;;;;-148.88;100.00;74209.44;5014390;28;20108;-84
2023/03/14 04:48:10;;;;;;;3.78;1.17;;;;;;;-148.88;100.00;74213.50;5014731;28;20068;-83
2023/03/14 04:50:35;;;;;;;7.18;0.98;;;;;;;-148.88;100.00;74219.59;5013165;28;20022;-84
2023/03/14 04:53:00;;;;;;;4.18;1.25;;;;;;;-148.88;100.00;74221.63;5014694;28;20032;-82
2023/03/14 04:55:26;;;;;;;4.70;0.95;;;;;;;-148.88;100.00;74225.69;5014204;28;20037;-84
2023/03/14 04:57:51;;;;;;;3.10;1.10;;;;;;;-148.88;100.00;74217.56;5014679;28;20034;-84
2023/03/14 05:00:19;;;;;;;6.47;1.45;;;;;;;-148.88;100.00;74217.56;5013317;28;20037;-84
2023/03/14 05:02:45;;;;;;;8.55;1.30;;;;;;;-148.88;100.00;74215.53;5015047;28;20026;-82
2023/03/14 05:05:10;;;;;;;3.85;1.27;;;;;;;-148.88;100.00;74215.53;5014805;28;20032;-83
2023/03/14 05:07:36;;;;;;;10.45;1.40;;;;;;;-148.88;100.00;74231.78;5013797;28;20026;-83
2023/03/14 05:10:01;;;;;;;3.67;1.05;;;;;;;-148.88;100.00;74221.63;5012887;28;20101;-83
2023/03/14 05:12:26;;;;;;;3.13;1.20;;;;;;;-148.88;100.00;74217.56;5013890;28;20477;-84
2023/03/14 05:14:52;;;;;;;7.15;1.45;;;;;;;-148.88;100.00;74215.53;5013028;28;20120;-83
2023/03/14 05:17:18;;;;;;;5.50;1.00;;;;;;;-148.88;100.00;74193.19;5013532;28;20026;-83
2023/03/14 05:19:43;;;;;;;8.15;2.03;;;;;;;-148.88;100.00;74197.25;5012398;28;20113;-83
2023/03/14 05:22:10;;;;;;;4.03;1.35;;;;;;;-148.88;100.00;74199.28;5013251;28;20054;-85
2023/03/14 05:24:35;;;;;;;5.53;1.10;;;;;;;-148.88;100.00;74185.06;5014115;28;20034;-83
2023/03/14 05:27:00;;;;;;;6.63;1.40;;;;;;;-148.88;100.00;74187.09;5012037;28;20022;-84
2023/03/14 05:29:26;;;;;;;10.88;1.17;;;;;;;-148.88;100.00;74187.09;5012384;28;20021;-84
2023/03/14 05:31:51;;;;;;;7.28;1.25;;;;;;;-148.88;100.00;74172.88;5015411;28;20107;-84
2023/03/14 05:34:16;;;;;;;8.15;1.60;;;;;;;-148.88;100.00;74185.06;5015827;28;20026;-85
2023/03/14 05:36:41;;;;;;;9.27;1.95;;;;;;;-148.88;100.00;74172.88;5018376;28;20026;-84
2023/03/14 05:39:07;;;;;;;4.20;1.25;;;;;;;-148.88;100.00;74185.06;5018010;28;20409;-85
2023/03/14 05:41:32;;;;;;;9.55;1.40;;;;;;;-148.88;100.00;74176.94;5018718;28;20026;-85
2023/03/14 05:43:57;;;;;;;7.30;1.52;;;;;;;-148.88;100.00;74172.88;5017824;28;20473;-84
2023/03/14 05:46:23;;;;;;;6.00;1.38;;;;;;;-148.88;100.00;74176.94;5018273;28;20040;-84
2023/03/14 05:48:48;;;;;;;8.43;1.27;;;;;;;-148.88;100.00;74168.84;5020330;28;20018;-85
2023/03/14 05:51:13;;;;;;;3.40;1.05;;;;;;;-148.88;100.00;74164.78;5021540;28;20117;-84
2023/03/14 05:53:38;;;;;;;5.40;1.50;;;;;;;-148.88;100.00;74170.84;5022871;28;20033;-84
2023/03/14 05:56:04;;;;;;;7.72;1.23;;;;;;;-148.88;100.00;74168.84;5022186;28;20041;-84
2023/03/14 05:58:29;;;;;;;5.40;1.40;;;;;;;-148.88;100.00;74162.75;5022764;28;20042;-83
2023/03/14 06:00:55;;;;;;;8.23;1.25;;;;;;;-148.88;100.00;74160.72;5023532;28;20029;-84
2023/03/14 06:03:20;;;;;;;3.92;0.80;;;;;;;-148.88;100.00;74150.56;5022895;28;20053;-85
2023/03/14 06:05:45;;;;;;;7.22;1.10;;;;;;;-148.88;100.00;74146.50;5027163;28;20450;-85
2023/03/14 06:08:11;;;;;;;5.65;1.10;;;;;;;-148.88;100.00;74162.75;5026931;28;20042;-87
2023/03/14 06:10:37;;;;;;;6.10;0.82;;;;;;;-148.88;100.00;74172.88;5027383;28;20018;-84
2023/03/14 06:13:02;;;;;;;2.70;0.70;;;;;;;-148.88;100.00;74164.78;5020100;28;20022;-86
2023/03/14 06:15:28;;;;;;;9.82;1.38;;;;;;;-148.88;100.00;74164.78;5018640;28;20030;-86
2023/03/14 06:17:56;;;;;;;3.55;0.85;;;;;;;-148.88;100.00;74168.84;5016828;28;20030;-86
2023/03/14 06:20:22;;;;;;;3.63;1.00;;;;;;;-148.88;100.00;74168.84;5016397;28;20485;-86
2023/03/14 06:22:47;;;;;;;3.42;0.85;;;;;;;-148.88;100.00;74170.84;5015754;28;20045;-86
2023/03/14 06:25:12;;;;;;;4.72;0.95;;;;;;;-148.88;100.00;74174.91;5015457;28;20453;-86
2023/03/14 06:27:40;;;;;;;3.67;0.70;;;;;;;-148.88;100.00;74172.88;5017632;28;20057;-87
2023/03/14 06:30:07;;;;;;;3.75;0.75;;;;;;;-148.88;100.00;74176.94;5017086;28;20021;-86
2023/03/14 06:32:33;;;;;;;2.25;0.63;;;;;;;-148.88;100.00;74176.94;5016563;28;20021;-85
2023/03/14 06:35:00;;;;;;;1.75;0.85;;;;;;;-148.88;100.00;74187.09;5019211;28;20036;-86
2023/03/14 06:37:29;;;;;;;2.47;0.40;;;;;;;-148.88;100.00;74197.25;5016874;28;20022;-87
2023/03/14 06:39:55;;;;;;;2.85;0.55;;;;;;;-148.88;100.00;74205.38;5020248;28;20029;-84
2023/03/14 06:42:20;;;;;;;3.97;0.55;;;;;;;-148.88;100.00;74203.34;5018362;28;20190;-86
2023/03/14 06:44:46;;;;;;;4.85;0.60;;;;;;;-148.88;100.00;74209.44;5018681;28;20118;-85
2023/03/14 06:47:12;;;;;;;2.83;0.40;;;;;;;-148.88;100.00;74205.38;5016670;28;20068;-85
2023/03/14 06:49:37;;;;;;;1.08;0.30;;;;;;;-148.88;100.00;74213.50;5018034;28;20030;-86
2023/03/14 06:52:02;;;;;;;1.85;0.50;;;;;;;-148.88;100.00;74221.63;5016546;28;20029;-86
2023/03/14 06:54:28;;;;;;;0.68;0.20;;;;;;;-148.88;100.00;74215.53;5015769;28;20025;-86
2023/03/14 06:56:53;;;;;;;0.93;0.30;;;;;;;-148.88;100.00;74225.69;5015856;28;20568;-86
2023/03/14 06:59:18;;;;;;;3.42;0.40;;;;;;;-148.88;100.00;74217.56;5016001;28;20030;-87
2023/03/14 07:01:44;;;;;;;1.98;0.30;;;;;;;-148.88;100.00;74213.50;5018020;28;20048;-87
2023/03/14 07:04:09;;;;;;;3.83;0.47;;;;;;;-148.88;100.00;74211.47;5017899;28;20388;-86
2023/03/14 07:06:34;;;;;;;0.90;0.30;;;;;;;-148.88;100.00;74213.50;5016711;28;20089;-86
2023/03/14 07:09:00;;;;;;;1.63;0.40;;;;;;;-148.88;100.00;74209.44;5016643;28;20076;-86
2023/03/14 07:11:52;;;;;;;1.10;0.28;;;;;;;-148.88;100.00;74209.44;5015643;28;20400;-87
2023/03/14 07:14:18;;;;;;;1.23;0.35;;;;;;;-148.88;100.00;74201.31;5018409;28;20061;-87
2023/03/14 07:16:43;;;;;;;3.33;0.93;;;;;;;-148.88;100.00;74219.59;5017228;28;20026;-86
2023/03/14 07:19:09;;;;;;;3.00;0.82;;;;;;;-148.88;100.00;74223.66;5014898;28;20471;-86
2023/03/14 07:21:40;;;;;;;1.65;0.60;;;;;;;-148.88;100.00;74229.75;5015474;28;20018;-86
2023/03/14 07:24:06;;;;;;;5.13;0.80;;;;;;;-148.88;100.00;74229.75;5014681;28;20026;-84
2023/03/14 07:26:31;;;;;;;2.28;0.70;;;;;;;-148.88;100.00;74227.72;5015081;28;20026;-86
2023/03/14 07:29:03;;;;;;;4.55;0.65;;;;;;;-148.88;100.00;74241.94;5014743;28;20022;-86
2023/03/14 07:31:34;;;;;;;1.98;0.80;;;;;;;-148.88;100.00;74262.22;5015223;28;20025;-86
2023/03/14 07:34:05;;;;;;;3.75;0.63;;;;;;;-148.88;100.00;74266.28;5015152;28;20164;-86
2023/03/14 07:36:31;;;;;;;3.15;1.20;;;;;;;-148.88;100.00;74264.25;5014022;28;20456;-86
2023/03/14 07:38:56;;;;;;;2.35;1.08;;;;;;;-148.88;100.00;74258.16;5014695;28;20093;-86
2023/03/14 07:41:24;;;;;;;3.13;0.70;;;;;;;-148.88;100.00;74266.28;5013802;28;20033;-86
2023/03/14 07:43:50;;;;;;;2.03;1.20;;;;;;;-148.88;100.00;74264.25;5014275;28;20026;-86
2023/03/14 07:46:15;;;;;;;2.28;0.75;;;;;;;-148.88;100.00;74264.25;5013809;28;20026;-86
2023/03/14 07:48:41;;;;;;;1.60;0.95;;;;;;;-148.88;100.00;74256.13;5013842;28;20030;-85
2023/03/14 07:51:06;;;;;;;2.38;1.10;;;;;;;-148.88;100.00;74262.22;5015376;28;20033;-86
2023/03/14 07:53:31;;;;;;;2.97;1.33;;;;;;;-148.88;100.00;74266.28;5014877;28;20029;-85
2023/03/14 07:56:17;;;;;;;2.63;1.50;;;;;;;-148.88;100.00;74266.28;5014141;28;20476;-87
2023/03/14 07:58:42;;;;;;;2.92;1.40;;;;;;;-148.88;100.00;74270.34;5018017;28;20084;-87
2023/03/14 08:01:08;;;;;;;4.72;1.80;;;;;;;-148.88;100.00;74268.31;5014894;28;20026;-85
2023/03/14 08:03:36;;;;;;;1.83;0.88;;;;;;;-148.88;100.00;74256.13;5014095;28;20025;-86
2023/03/14 08:06:01;;;;;;;1.80;1.10;;;;;;;-148.88;100.00;74262.22;5015840;28;20026;-86
2023/03/14 08:08:27;;;;;;;3.38;1.00;;;;;;;-148.88;100.00;74256.13;5015794;28;20022;-87
2023/03/14 08:10:52;;;;;;;2.67;1.00;;;;;;;-148.88;100.00;74248.00;5015338;28;20385;-87
2023/03/14 08:13:17;;;;;;;2.50;0.98;;;;;;;-148.88;100.00;74252.06;5014589;28;20167;-86
2023/03/14 08:15:49;;;;;;;1.75;0.90;;;;;;;-148.88;100.00;74246.00;5014725;28;20068;-87
2023/03/14 08:18:14;;;;;;;7.53;1.30;;;;;;;-148.88;100.00;74246.00;5013626;28;20041;-87
2023/03/14 08:20:39;;;;;;;2.20;0.90;;;;;;;-148.88;100.00;74241.94;5013753;28;20018;-86
2023/03/14 08:23:12;;;;;;;2.88;1.30;;;;;;;-148.88;100.00;74237.88;5014497;28;20037;-86
2023/03/14 08:25:41;;;;;;;3.75;1.83;;;;;;;-148.88;100.00;74239.91;5026467;28;20041;-87
2023/03/14 08:28:06;;;;;;;2.97;1.70;;;;;;;-148.88;100.00;74248.00;5034794;28;20109;-87
2023/03/14 08:30:31;;;;;;;3.65;1.58;;;;;;;-148.88;100.00;74233.81;5028445;28;20026;-88
2023/03/14 08:33:07;;;;;;;5.85;1.98;;;;;;;-148.88;100.00;74221.63;5017475;28;20025;-87
2023/03/14 08:35:32;;;;;;;6.50;2.60;;;;;;;-148.88;100.00;74225.69;5016225;28;20026;-87
2023/03/14 08:38:01;;;;;;;4.90;2.45;;;;;;;-148.88;100.00;74217.56;5015989;28;20026;-86
2023/03/14 08:40:26;;;;;;;5.13;3.00;;;;;;;-148.88;100.00;74213.50;5016263;28;20068;-87
2023/03/14 08:42:51;;;;;;;5.15;2.90;;;;;;;-148.88;100.00;74205.38;5017942;28;20018;-88
2023/03/14 08:45:17;;;;;;;5.35;2.90;;;;;;;-148.88;100.00;74191.16;5016507;28;20048;-86
2023/03/14 08:47:44;;;;;;;5.72;3.15;;;;;;;-148.88;100.00;74178.97;5015518;28;20033;-87
2023/03/14 08:50:10;;;;;;;6.28;3.65;;;;;;;-148.88;100.00;74195.22;5015815;28;20017;-86
2023/03/14 08:52:37;;;;;;;4.72;3.20;;;;;;;-148.88;100.00;74178.97;5016410;28;20026;-86
2023/03/14 08:55:11;;;;;;;6.88;3.25;;;;;;;-148.88;100.00;74172.88;5017754;28;20046;-87
2023/03/14 08:57:36;;;;;;;;;;;;;;;-148.88;100.00;74172.88;5017331;28;20477;-86
2023/03/14 09:00:12;;;;;;;7.15;3.30;;;;;;;-148.88;100.00;74156.66;5034635;28;19913;-88
2023/03/14 09:02:37;;;;;;;6.85;3.45;;;;;;;-148.88;100.00;74136.34;5019539;28;20416;-88
2023/03/14 09:05:04;;;;;;;6.78;3.75;;;;;;;-148.88;100.00;74128.22;5020744;28;20025;-87
2023/03/14 09:07:34;;;;;;;6.57;5.60;;;;;;;-148.88;100.00;74124.16;5020499;28;20136;-87
2023/03/14 09:10:00;;;;;;;7.72;3.80;;;;;;;-148.88;100.00;74120.09;5019802;28;20018;-87
2023/03/14 09:12:25;;;;;;;6.50;5.20;;;;;;;-148.88;100.00;74128.22;5018642;28;20018;-87
2023/03/14 09:14:51;;;;;;;8.00;3.75;;;;;;;-148.88;100.00;74120.09;5018308;28;20049;-87
2023/03/14 09:17:16;;;;;;;6.53;3.65;;;;;;;-148.88;100.00;74132.28;5020361;28;20049;-86
2023/03/14 09:19:42;;;;;;;5.28;3.33;;;;;;;-148.88;100.00;74136.34;5019299;28;20534;-88
2023/03/14 09:22:07;;;;;;;10.27;8.93;;;;;;;-148.88;100.00;74146.50;5020619;28;20037;-86
2023/03/14 09:24:32;;;;;;;10.40;7.00;;;;;;;-148.88;100.00;74140.41;5021044;28;20107;-86
2023/03/14 09:26:57;;;;;;;8.93;4.00;;;;;;;-148.88;100.00;74128.22;5016998;28;20037;-86
2023/03/14 09:29:24;;;;;;;6.55;3.80;;;;;;;-148.88;100.00;74120.09;5017281;28;20073;-87
2023/03/14 09:31:49;;;;;;;7.30;6.60;;;;;;;-148.88;100.00;74120.09;5016672;28;20026;-86
2023/03/14 09:34:14;;;;;;;7.60;4.57;;;;;;;-148.88;100.00;74116.03;5017918;28;20033;-86
2023/03/14 09:36:40;;;;;;;9.32;4.70;;;;;;;-148.88;100.00;74126.19;5018629;28;20030;-87
2023/03/14 09:39:05;;;;;;;10.50;9.40;;;;;;;-148.88;100.00;74118.06;5022437;28;20030;-87
2023/03/14 09:41:39;;;;;;;10.15;9.00;;;;;;;-148.88;100.00;74103.84;5020055;28;20109;-87
2023/03/14 09:44:31;;;;;;;10.40;6.13;;;;;;;-148.88;100.00;74103.84;5019105;28;20502;-86
2023/03/14 09:47:02;;;;;;;8.82;4.80;;;;;;;-148.88;100.00;74089.66;5019168;28;20030;-87
2023/03/14 09:49:31;;;;;;;11.98;8.65;;;;;;;-148.88;100.00;74083.56;5019073;28;20018;-88
2023/03/14 09:52:00;;;;;;;10.50;5.03;;;;;;;-148.88;100.00;74099.78;5017964;28;20058;-85
2023/03/14 09:54:36;;;;;;;10.48;8.65;;;;;;;-148.88;100.00;74111.97;5018203;28;20026;-86
2023/03/14 09:57:03;;;;;;;8.18;5.28;;;;;;;-148.88;100.00;74103.84;5015737;28;20034;-86
2023/03/14 09:59:29;;;;;;;8.50;6.22;;;;;;;-148.88;100.00;74111.97;5015608;28;20026;-86
2023/03/14 10:02:01;;;;;;;9.18;5.40;;;;;;;-148.88;100.00;74097.78;5018605;28;20108;-85
2023/03/14 10:04:28;;;;;;;10.63;5.88;;;;;;;-148.88;100.00;74111.97;5016961;28;20076;-88
2023/03/14 10:06:53;;;;;;;11.70;6.35;;;;;;;-148.88;100.00;74132.28;5018924;28;20503;-86
2023/03/14 10:09:25;;;;;;;10.25;9.15;;;;;;;-148.88;100.00;74130.25;5016752;28;20014;-86
2023/03/14 10:11:55;;;;;;;9.38;8.38;;;;;;;-148.88;100.00;74132.28;5016527;28;20033;-86
2023/03/14 10:14:36;;;;;;;6.68;4.15;;;;;;;-148.88;100.00;74132.28;5016409;28;20022;-87
2023/03/14 10:17:10;;;;;;;7.05;6.35;;;;;;;-148.88;100.00;74132.28;5016185;28;20029;-86
2023/03/14 10:19:36;;;;;;;7.68;4.22;;;;;;;-148.88;100.00;74138.38;5015533;28;20022;-87
2023/03/14 10:22:04;;;;;;;7.13;3.60;;;;;;;-148.88;100.00;74174.91;5015186;28;20114;-86
2023/03/14 10:24:34;;;;;;;1.52;0.70;;;;;;;-148.88;100.00;74384.06;5016607;28;20053;-85
2023/03/14 10:27:18;;;;;;;1.20;0.30;;;;;;;-148.88;100.00;74436.84;5014773;28;20061;-85
2023/03/14 10:29:56;;;;;;;1.20;0.30;;;;;;;-148.88;100.00;74469.34;5015929;28;20040;-85
2023/03/14 10:32:28;;;;;;;1.52;0.40;;;;;;;-148.88;100.00;74469.34;5016974;28;20022;-87
2023/03/14 10:35:26;;;;;;;0.88;0.40;;;;;;;-148.88;100.00;74469.34;5015882;28;20108;-87
2023/03/14 10:38:00;;;;;;;1.10;0.60;;;;;;;-148.88;100.00;74465.28;4983743;28;20033;-87
2023/03/14 10:40:30;;;;;;;1.02;0.47;;;;;;;-148.88;100.00;74491.69;5015371;28;20026;-87
2023/03/14 10:42:58;;;;;;;1.25;0.70;;;;;;;-148.88;100.00;74562.75;5015510;28;20396;-85
2023/03/14 10:45:42;;;;;;;2.38;0.50;;;;;;;-148.88;100.00;74646.00;5015790;28;20032;-86
2023/03/14 10:48:20;;;;;;;;;;;;;;;-148.88;100.00;74700.84;5016026;28;20105;-86
2023/03/14 10:51:06;;;;;;;1.75;0.60;;;;;;;-148.88;100.00;74733.31;5015742;28;19913;-86
2023/03/14 10:53:43;;;;;;;3.00;0.45;;;;;;;-148.88;100.00;74771.91;5014145;28;20076;-86
2023/03/14 10:56:14;;;;;;;1.02;0.60;;;;;;;-148.88;100.00;74804.41;5014890;28;20114;-86
2023/03/14 10:58:43;;;;;;;3.08;0.30;;;;;;;-148.88;100.00;74842.97;5015662;28;20033;-86
2023/03/14 11:01:23;;;;;;;1.38;0.22;;;;;;;-148.88;100.00;74875.47;5015272;28;20114;-85
2023/03/14 11:04:10;;;;;;;1.85;0.30;;;;;;;-148.88;100.00;74901.88;5015509;28;20022;-85
2023/03/14 11:06:55;;;;;;;1.85;0.20;;;;;;;-148.88;100.00;74916.09;5015741;28;20496;-87
2023/03/14 11:09:29;;;;;;;1.15;0.17;;;;;;;-148.88;100.00;74979.03;5015613;28;20033;-85
2023/03/14 11:11:58;;;;;;;;;;;;;;;-148.88;100.00;75035.91;5014426;28;20099;-85
2023/03/14 11:14:31;;;;;;;0.45;0.30;;;;;;;-148.88;100.00;75088.72;5030175;28;19909;-86